sensor_id;sensor_type;location;lat;lon;timestamp;temperature;humidity
4324;DHT22;2175;51.018;6.994;2023-04-24T00:00:11;12.20;99.90
4324;DHT22;2175;51.018;6.994;2023-04-24T00:02:53;12.20;99.90
4324;DHT22;2175;51.018;6.994;2023-04-24T00:05:24;12.20;99.90
4324;DHT22;2175;51.018;6.994;2023-04-24T00:07:52;12.20;99.90
4324;DHT22;2175;51.018;6.994;2023-04-24T00:10:28;12.30;99.90
4324;DHT22;2175;51.018;6.994;2023-04-24T00:13:00;12.30;99.90
4324;DHT22;2175;51.018;6.994;2023-04-24T00:15:29;12.30;99.90
4324;DHT22;2175;51.018;6.994;2023-04-24T00:18:07;12.20;99.90
4324;DHT22;2175;51.018;6.994;2023-04-24T00:20:39;12.30;99.90
4324;DHT22;2175;51.018;6.994;2023-04-24T00:23:35;12.10;99.90
4324;DHT22;2175;51.018;6.994;2023-04-24T00:26:13;12.20;99.90
4324;DHT22;2175;51.018;6.994;2023-04-24T00:28:47;12.10;99.90
4324;DHT22;2175;51.018;6.994;2023-04-24T00:31:18;12.00;99.90
4324;DHT22;2175;51.018;6.994;2023-04-24T00:33:44;12.10;99.90
4324;DHT22;2175;51.018;6.994;2023-04-24T00:36:15;12.00;99.90
4324;DHT22;2175;51.018;6.994;2023-04-24T00:38:51;12.00;99.90
4324;DHT22;2175;51.018;6.994;2023-04-24T00:41:17;12.00;99.90
4324;DHT22;2175;51.018;6.994;2023-04-24T00:43:46;12.00;99.90
4324;DHT22;2175;51.018;6.994;2023-04-24T00:46:12;12.10;99.90
4324;DHT22;2175;51.018;6.994;2023-04-24T00:48:39;12.00;99.90
4324;DHT22;2175;51.018;6.994;2023-04-24T00:51:06;12.10;99.90
4324;DHT22;2175;51.018;6.994;2023-04-24T00:53:38;12.00;99.90
4324;DHT22;2175;51.018;6.994;2023-04-24T00:56:04;12.00;99.90
4324;DHT22;2175;51.018;6.994;2023-04-24T00:58:34;12.00;99.90
4324;DHT22;2175;51.018;6.994;2023-04-24T01:01:01;12.00;99.90
4324;DHT22;2175;51.018;6.994;2023-04-24T01:03:31;12.00;99.90
4324;DHT22;2175;51.018;6.994;2023-04-24T01:05:59;12.00;99.90
4324;DHT22;2175;51.018;6.994;2023-04-24T01:08:31;12.00;99.90
4324;DHT22;2175;51.018;6.994;2023-04-24T01:11:13;12.10;99.90
4324;DHT22;2175;51.018;6.994;2023-04-24T01:13:39;12.10;99.90
4324;DHT22;2175;51.018;6.994;2023-04-24T01:16:05;12.10;99.90
4324;DHT22;2175;51.018;6.994;2023-04-24T01:18:31;12.00;99.90
4324;DHT22;2175;51.018;6.994;2023-04-24T01:21:03;12.00;99.90
4324;DHT22;2175;51.018;6.994;2023-04-24T01:23:30;11.90;99.90
4324;DHT22;2175;51.018;6.994;2023-04-24T01:25:56;11.90;99.90
4324;DHT22;2175;51.018;6.994;2023-04-24T01:28:21;11.90;99.90
4324;DHT22;2175;51.018;6.994;2023-04-24T01:30:48;11.90;99.90
4324;DHT22;2175;51.018;6.994;2023-04-24T01:33:14;11.80;99.90
4324;DHT22;2175;51.018;6.994;2023-04-24T01:35:40;11.70;99.90
4324;DHT22;2175;51.018;6.994;2023-04-24T01:38:05;11.70;99.90
4324;DHT22;2175;51.018;6.994;2023-04-24T01:40:32;11.60;99.90
4324;DHT22;2175;51.018;6.994;2023-04-24T01:42:58;11.50;99.90
4324;DHT22;2175;51.018;6.994;2023-04-24T01:45:24;11.40;99.90
4324;DHT22;2175;51.018;6.994;2023-04-24T01:47:49;11.40;99.90
4324;DHT22;2175;51.018;6.994;2023-04-24T01:50:15;11.40;99.90
4324;DHT22;2175;51.018;6.994;2023-04-24T01:52:41;11.40;99.90
4324;DHT22;2175;51.018;6.994;2023-04-24T01:55:07;11.30;99.90
4324;DHT22;2175;51.018;6.994;2023-04-24T01:57:33;11.20;99.90
4324;DHT22;2175;51.018;6.994;2023-04-24T01:59:59;11.10;99.90
4324;DHT22;2175;51.018;6.994;2023-04-24T02:02:25;11.00;99.90
4324;DHT22;2175;51.018;6.994;2023-04-24T02:04:53;11.00;99.90
4324;DHT22;2175;51.018;6.994;2023-04-24T02:07:19;11.00;99.90
4324;DHT22;2175;51.018;6.994;2023-04-24T02:09:44;11.00;99.90
4324;DHT22;2175;51.018;6.994;2023-04-24T02:12:10;10.80;99.90
4324;DHT22;2175;51.018;6.994;2023-04-24T02:14:36;10.80;99.90
4324;DHT22;2175;51.018;6.994;2023-04-24T02:17:01;10.60;99.90
4324;DHT22;2175;51.018;6.994;2023-04-24T02:19:27;10.50;99.90
4324;DHT22;2175;51.018;6.994;2023-04-24T02:21:52;10.50;99.90
4324;DHT22;2175;51.018;6.994;2023-04-24T02:24:18;10.40;99.90
4324;DHT22;2175;51.018;6.994;2023-04-24T02:26:44;10.30;99.90
4324;DHT22;2175;51.018;6.994;2023-04-24T02:29:10;10.30;99.90
4324;DHT22;2175;51.018;6.994;2023-04-24T02:31:36;10.30;99.90
4324;DHT22;2175;51.018;6.994;2023-04-24T02:34:01;10.20;99.90
4324;DHT22;2175;51.018;6.994;2023-04-24T02:36:27;10.20;99.90
4324;DHT22;2175;51.018;6.994;2023-04-24T02:38:54;10.20;99.90
4324;DHT22;2175;51.018;6.994;2023-04-24T02:41:19;10.10;99.90
4324;DHT22;2175;51.018;6.994;2023-04-24T02:43:48;10.10;99.90
4324;DHT22;2175;51.018;6.994;2023-04-24T02:46:13;10.00;99.90
4324;DHT22;2175;51.018;6.994;2023-04-24T02:48:39;10.10;99.90
4324;DHT22;2175;51.018;6.994;2023-04-24T02:51:05;10.10;99.90
4324;DHT22;2175;51.018;6.994;2023-04-24T02:53:32;10.10;99.90
4324;DHT22;2175;51.018;6.994;2023-04-24T02:55:57;10.20;99.90
4324;DHT22;2175;51.018;6.994;2023-04-24T02:58:23;10.10;99.90
4324;DHT22;2175;51.018;6.994;2023-04-24T03:00:48;10.20;99.90
4324;DHT22;2175;51.018;6.994;2023-04-24T03:03:20;10.30;99.90
4324;DHT22;2175;51.018;6.994;2023-04-24T03:05:48;10.30;99.90
4324;DHT22;2175;51.018;6.994;2023-04-24T03:08:13;10.30;99.90
4324;DHT22;2175;51.018;6.994;2023-04-24T03:10:40;10.40;99.90
4324;DHT22;2175;51.018;6.994;2023-04-24T03:13:13;10.30;99.90
4324;DHT22;2175;51.018;6.994;2023-04-24T03:15:46;10.40;99.90
4324;DHT22;2175;51.018;6.994;2023-04-24T03:18:39;10.40;99.90
4324;DHT22;2175;51.018;6.994;2023-04-24T03:21:27;10.40;99.90
4324;DHT22;2175;51.018;6.994;2023-04-24T03:24:17;10.40;99.90
4324;DHT22;2175;51.018;6.994;2023-04-24T03:26:46;10.50;99.90
4324;DHT22;2175;51.018;6.994;2023-04-24T03:29:11;10.50;99.90
4324;DHT22;2175;51.018;6.994;2023-04-24T03:31:37;10.50;99.90
4324;DHT22;2175;51.018;6.994;2023-04-24T03:34:02;10.40;99.90
4324;DHT22;2175;51.018;6.994;2023-04-24T03:36:28;10.40;99.90
4324;DHT22;2175;51.018;6.994;2023-04-24T03:38:56;10.40;99.90
4324;DHT22;2175;51.018;6.994;2023-04-24T03:41:24;10.40;99.90
4324;DHT22;2175;51.018;6.994;2023-04-24T03:43:54;10.50;99.90
4324;DHT22;2175;51.018;6.994;2023-04-24T03:46:26;10.50;99.90
4324;DHT22;2175;51.018;6.994;2023-04-24T03:49:01;10.50;99.90
4324;DHT22;2175;51.018;6.994;2023-04-24T03:51:27;10.40;99.90
4324;DHT22;2175;51.018;6.994;2023-04-24T03:53:56;10.30;99.90
4324;DHT22;2175;51.018;6.994;2023-04-24T03:56:21;10.30;99.90
4324;DHT22;2175;51.018;6.994;2023-04-24T03:58:47;10.20;99.90
4324;DHT22;2175;51.018;6.994;2023-04-24T04:01:13;10.20;99.90
4324;DHT22;2175;51.018;6.994;2023-04-24T04:03:38;10.30;99.90
4324;DHT22;2175;51.018;6.994;2023-04-24T04:06:04;10.30;99.90
4324;DHT22;2175;51.018;6.994;2023-04-24T04:08:30;10.30;99.90
4324;DHT22;2175;51.018;6.994;2023-04-24T04:10:55;10.40;99.90
4324;DHT22;2175;51.018;6.994;2023-04-24T04:13:28;10.40;99.90
4324;DHT22;2175;51.018;6.994;2023-04-24T04:15:56;10.30;99.90
4324;DHT22;2175;51.018;6.994;2023-04-24T04:18:22;10.30;99.90
4324;DHT22;2175;51.018;6.994;2023-04-24T04:20:47;10.30;99.90
4324;DHT22;2175;51.018;6.994;2023-04-24T04:23:13;10.30;99.90
4324;DHT22;2175;51.018;6.994;2023-04-24T04:25:38;10.30;99.90
4324;DHT22;2175;51.018;6.994;2023-04-24T04:28:04;10.30;99.90
4324;DHT22;2175;51.018;6.994;2023-04-24T04:30:30;10.30;99.90
4324;DHT22;2175;51.018;6.994;2023-04-24T04:32:57;10.30;99.90
4324;DHT22;2175;51.018;6.994;2023-04-24T04:35:23;10.30;99.90
4324;DHT22;2175;51.018;6.994;2023-04-24T04:37:50;10.30;99.90
4324;DHT22;2175;51.018;6.994;2023-04-24T04:40:16;10.30;99.90
4324;DHT22;2175;51.018;6.994;2023-04-24T04:42:42;10.30;99.90
4324;DHT22;2175;51.018;6.994;2023-04-24T04:45:13;10.20;99.90
4324;DHT22;2175;51.018;6.994;2023-04-24T04:47:42;10.30;99.90
4324;DHT22;2175;51.018;6.994;2023-04-24T04:50:07;10.20;99.90
4324;DHT22;2175;51.018;6.994;2023-04-24T04:52:33;10.30;99.90
4324;DHT22;2175;51.018;6.994;2023-04-24T04:54:59;10.20;99.90
4324;DHT22;2175;51.018;6.994;2023-04-24T04:57:25;10.30;99.90
4324;DHT22;2175;51.018;6.994;2023-04-24T04:59:50;10.20;99.90
4324;DHT22;2175;51.018;6.994;2023-04-24T05:02:17;10.30;99.90
4324;DHT22;2175;51.018;6.994;2023-04-24T05:04:42;10.30;99.90
4324;DHT22;2175;51.018;6.994;2023-04-24T05:07:08;10.30;99.90
4324;DHT22;2175;51.018;6.994;2023-04-24T05:09:33;10.30;99.90
4324;DHT22;2175;51.018;6.994;2023-04-24T05:11:59;10.30;99.90
4324;DHT22;2175;51.018;6.994;2023-04-24T05:14:30;10.40;99.90
4324;DHT22;2175;51.018;6.994;2023-04-24T05:16:56;10.40;99.90
4324;DHT22;2175;51.018;6.994;2023-04-24T05:19:21;10.40;99.90
4324;DHT22;2175;51.018;6.994;2023-04-24T05:21:47;10.40;99.90
4324;DHT22;2175;51.018;6.994;2023-04-24T05:24:13;10.30;99.90
4324;DHT22;2175;51.018;6.994;2023-04-24T05:26:39;10.30;99.90
4324;DHT22;2175;51.018;6.994;2023-04-24T05:29:04;10.30;99.90
4324;DHT22;2175;51.018;6.994;2023-04-24T05:31:30;10.30;99.90
4324;DHT22;2175;51.018;6.994;2023-04-24T05:33:56;10.40;99.90
4324;DHT22;2175;51.018;6.994;2023-04-24T05:36:21;10.30;99.90
4324;DHT22;2175;51.018;6.994;2023-04-24T05:38:47;10.20;99.90
4324;DHT22;2175;51.018;6.994;2023-04-24T05:41:15;10.10;99.90
4324;DHT22;2175;51.018;6.994;2023-04-24T05:43:41;10.10;99.90
4324;DHT22;2175;51.018;6.994;2023-04-24T05:46:06;10.10;99.90
4324;DHT22;2175;51.018;6.994;2023-04-24T05:48:32;10.00;99.90
4324;DHT22;2175;51.018;6.994;2023-04-24T05:51:00;9.90;99.90
4324;DHT22;2175;51.018;6.994;2023-04-24T05:53:26;9.90;99.90
4324;DHT22;2175;51.018;6.994;2023-04-24T05:55:52;9.70;99.90
4324;DHT22;2175;51.018;6.994;2023-04-24T05:58:18;9.80;99.90
4324;DHT22;2175;51.018;6.994;2023-04-24T06:00:48;9.80;99.90
4324;DHT22;2175;51.018;6.994;2023-04-24T06:03:15;9.80;99.90
4324;DHT22;2175;51.018;6.994;2023-04-24T06:05:40;9.80;99.90
4324;DHT22;2175;51.018;6.994;2023-04-24T06:08:09;9.80;99.90
4324;DHT22;2175;51.018;6.994;2023-04-24T06:10:35;9.80;99.90
4324;DHT22;2175;51.018;6.994;2023-04-24T06:13:01;9.80;99.90
4324;DHT22;2175;51.018;6.994;2023-04-24T06:15:30;9.80;99.90
4324;DHT22;2175;51.018;6.994;2023-04-24T06:17:56;10.00;99.90
4324;DHT22;2175;51.018;6.994;2023-04-24T06:20:22;9.90;99.90
4324;DHT22;2175;51.018;6.994;2023-04-24T06:22:49;9.90;99.90
4324;DHT22;2175;51.018;6.994;2023-04-24T06:25:15;9.90;99.90
4324;DHT22;2175;51.018;6.994;2023-04-24T06:27:40;9.80;99.90
4324;DHT22;2175;51.018;6.994;2023-04-24T06:30:06;9.80;99.90
4324;DHT22;2175;51.018;6.994;2023-04-24T06:32:32;9.70;99.90
4324;DHT22;2175;51.018;6.994;2023-04-24T06:34:58;9.70;99.90
4324;DHT22;2175;51.018;6.994;2023-04-24T06:37:23;9.70;99.90
4324;DHT22;2175;51.018;6.994;2023-04-24T06:39:49;9.70;99.90
4324;DHT22;2175;51.018;6.994;2023-04-24T06:42:15;9.70;99.90
4324;DHT22;2175;51.018;6.994;2023-04-24T06:44:40;9.60;99.90
4324;DHT22;2175;51.018;6.994;2023-04-24T06:47:10;9.50;99.90
4324;DHT22;2175;51.018;6.994;2023-04-24T06:49:36;9.50;99.90
4324;DHT22;2175;51.018;6.994;2023-04-24T06:52:02;9.50;99.90
4324;DHT22;2175;51.018;6.994;2023-04-24T06:54:29;9.40;99.90
4324;DHT22;2175;51.018;6.994;2023-04-24T06:56:55;9.20;99.90
4324;DHT22;2175;51.018;6.994;2023-04-24T06:59:21;9.20;99.90
4324;DHT22;2175;51.018;6.994;2023-04-24T07:01:46;9.20;99.90
4324;DHT22;2175;51.018;6.994;2023-04-24T07:04:12;9.20;99.90
4324;DHT22;2175;51.018;6.994;2023-04-24T07:06:38;9.20;99.90
4324;DHT22;2175;51.018;6.994;2023-04-24T07:09:04;9.20;99.90
4324;DHT22;2175;51.018;6.994;2023-04-24T07:11:30;9.20;99.90
4324;DHT22;2175;51.018;6.994;2023-04-24T07:13:55;9.20;99.90
4324;DHT22;2175;51.018;6.994;2023-04-24T07:16:21;9.20;99.90
4324;DHT22;2175;51.018;6.994;2023-04-24T07:18:47;9.00;99.90
4324;DHT22;2175;51.018;6.994;2023-04-24T07:21:13;9.00;99.90
4324;DHT22;2175;51.018;6.994;2023-04-24T07:23:38;9.10;99.90
4324;DHT22;2175;51.018;6.994;2023-04-24T07:26:04;9.10;99.90
4324;DHT22;2175;51.018;6.994;2023-04-24T07:28:30;9.20;99.90
4324;DHT22;2175;51.018;6.994;2023-04-24T07:30:57;9.20;99.90
4324;DHT22;2175;51.018;6.994;2023-04-24T07:33:23;9.30;99.90
4324;DHT22;2175;51.018;6.994;2023-04-24T07:35:49;9.10;99.90
4324;DHT22;2175;51.018;6.994;2023-04-24T07:38:15;9.10;99.90
4324;DHT22;2175;51.018;6.994;2023-04-24T07:40:41;9.10;99.90
4324;DHT22;2175;51.018;6.994;2023-04-24T07:43:06;9.00;99.90
4324;DHT22;2175;51.018;6.994;2023-04-24T07:45:32;9.00;99.90
4324;DHT22;2175;51.018;6.994;2023-04-24T07:48:01;8.90;99.90
4324;DHT22;2175;51.018;6.994;2023-04-24T07:50:26;8.70;99.90
4324;DHT22;2175;51.018;6.994;2023-04-24T07:52:52;8.70;99.90
4324;DHT22;2175;51.018;6.994;2023-04-24T07:55:18;8.80;99.90
4324;DHT22;2175;51.018;6.994;2023-04-24T07:57:43;8.80;99.90
4324;DHT22;2175;51.018;6.994;2023-04-24T08:00:09;8.60;99.90
4324;DHT22;2175;51.018;6.994;2023-04-24T08:02:35;8.50;99.90
4324;DHT22;2175;51.018;6.994;2023-04-24T08:05:01;8.60;99.90
4324;DHT22;2175;51.018;6.994;2023-04-24T08:07:29;8.50;99.90
4324;DHT22;2175;51.018;6.994;2023-04-24T08:09:54;8.40;99.90
4324;DHT22;2175;51.018;6.994;2023-04-24T08:12:20;8.40;99.90
4324;DHT22;2175;51.018;6.994;2023-04-24T08:14:45;8.40;99.90
4324;DHT22;2175;51.018;6.994;2023-04-24T08:17:11;8.40;99.90
4324;DHT22;2175;51.018;6.994;2023-04-24T08:19:37;8.40;99.90
4324;DHT22;2175;51.018;6.994;2023-04-24T08:22:02;8.30;99.90
4324;DHT22;2175;51.018;6.994;2023-04-24T08:24:29;8.30;99.90
4324;DHT22;2175;51.018;6.994;2023-04-24T08:26:55;8.30;99.90
4324;DHT22;2175;51.018;6.994;2023-04-24T08:29:23;8.20;99.90
4324;DHT22;2175;51.018;6.994;2023-04-24T08:31:48;8.20;99.90
4324;DHT22;2175;51.018;6.994;2023-04-24T08:34:14;8.10;99.90
4324;DHT22;2175;51.018;6.994;2023-04-24T08:36:40;8.10;99.90
4324;DHT22;2175;51.018;6.994;2023-04-24T08:39:06;8.00;99.90
4324;DHT22;2175;51.018;6.994;2023-04-24T08:41:34;8.00;99.90
4324;DHT22;2175;51.018;6.994;2023-04-24T08:44:03;8.00;99.90
4324;DHT22;2175;51.018;6.994;2023-04-24T08:46:32;8.00;99.90
4324;DHT22;2175;51.018;6.994;2023-04-24T08:49:07;7.90;99.90
4324;DHT22;2175;51.018;6.994;2023-04-24T08:51:42;7.90;99.90
4324;DHT22;2175;51.018;6.994;2023-04-24T08:54:21;8.00;99.90
4324;DHT22;2175;51.018;6.994;2023-04-24T08:56:51;8.00;99.90
4324;DHT22;2175;51.018;6.994;2023-04-24T08:59:32;8.00;99.90
4324;DHT22;2175;51.018;6.994;2023-04-24T09:02:03;8.00;99.90
4324;DHT22;2175;51.018;6.994;2023-04-24T09:04:35;8.10;99.90
4324;DHT22;2175;51.018;6.994;2023-04-24T09:08:01;8.10;99.90
4324;DHT22;2175;51.018;6.994;2023-04-24T09:10:27;8.20;99.90
4324;DHT22;2175;51.018;6.994;2023-04-24T09:12:56;8.20;99.90
4324;DHT22;2175;51.018;6.994;2023-04-24T09:15:24;8.30;99.90
4324;DHT22;2175;51.018;6.994;2023-04-24T09:17:50;8.40;99.90
4324;DHT22;2175;51.018;6.994;2023-04-24T09:20:16;8.50;99.90
4324;DHT22;2175;51.018;6.994;2023-04-24T09:22:42;8.40;99.90
4324;DHT22;2175;51.018;6.994;2023-04-24T09:25:09;8.40;99.90
4324;DHT22;2175;51.018;6.994;2023-04-24T09:27:44;8.40;99.90
4324;DHT22;2175;51.018;6.994;2023-04-24T09:30:11;8.50;99.90
4324;DHT22;2175;51.018;6.994;2023-04-24T09:32:37;8.50;99.90
4324;DHT22;2175;51.018;6.994;2023-04-24T09:37:36;8.60;99.90
4324;DHT22;2175;51.018;6.994;2023-04-24T09:42:34;8.50;99.90
4324;DHT22;2175;51.018;6.994;2023-04-24T09:44:59;8.60;99.90
4324;DHT22;2175;51.018;6.994;2023-04-24T09:47:25;8.60;99.90
4324;DHT22;2175;51.018;6.994;2023-04-24T09:49:50;8.80;99.90
4324;DHT22;2175;51.018;6.994;2023-04-24T09:52:22;8.80;99.90
4324;DHT22;2175;51.018;6.994;2023-04-24T09:54:53;9.00;99.90
4324;DHT22;2175;51.018;6.994;2023-04-24T09:57:19;9.00;99.90
4324;DHT22;2175;51.018;6.994;2023-04-24T09:59:46;9.10;99.90
4324;DHT22;2175;51.018;6.994;2023-04-24T10:02:19;9.10;99.90
4324;DHT22;2175;51.018;6.994;2023-04-24T10:04:54;9.20;99.90
4324;DHT22;2175;51.018;6.994;2023-04-24T10:07:21;9.10;99.90
4324;DHT22;2175;51.018;6.994;2023-04-24T10:09:47;9.30;99.90
4324;DHT22;2175;51.018;6.994;2023-04-24T10:12:13;9.30;99.90
4324;DHT22;2175;51.018;6.994;2023-04-24T10:14:39;9.40;99.90
4324;DHT22;2175;51.018;6.994;2023-04-24T10:17:06;9.50;99.90
4324;DHT22;2175;51.018;6.994;2023-04-24T10:19:32;9.70;99.90
4324;DHT22;2175;51.018;6.994;2023-04-24T10:21:59;9.70;99.90
4324;DHT22;2175;51.018;6.994;2023-04-24T10:24:25;9.70;99.90
4324;DHT22;2175;51.018;6.994;2023-04-24T10:26:52;9.80;99.90
4324;DHT22;2175;51.018;6.994;2023-04-24T10:29:19;9.80;99.90
4324;DHT22;2175;51.018;6.994;2023-04-24T10:31:45;10.00;99.90
4324;DHT22;2175;51.018;6.994;2023-04-24T10:34:12;10.30;99.90
4324;DHT22;2175;51.018;6.994;2023-04-24T10:36:42;10.40;99.90
4324;DHT22;2175;51.018;6.994;2023-04-24T10:39:12;10.50;99.90
4324;DHT22;2175;51.018;6.994;2023-04-24T10:41:38;10.50;99.90
4324;DHT22;2175;51.018;6.994;2023-04-24T10:46:30;10.60;99.90
4324;DHT22;2175;51.018;6.994;2023-04-24T10:48:56;10.40;99.90
4324;DHT22;2175;51.018;6.994;2023-04-24T10:51:24;10.40;99.90
4324;DHT22;2175;51.018;6.994;2023-04-24T10:53:50;10.40;99.90
4324;DHT22;2175;51.018;6.994;2023-04-24T10:56:17;10.40;99.90
4324;DHT22;2175;51.018;6.994;2023-04-24T10:58:44;10.30;99.90
4324;DHT22;2175;51.018;6.994;2023-04-24T11:04:00;10.10;99.90
4324;DHT22;2175;51.018;6.994;2023-04-24T11:06:31;10.10;99.90
4324;DHT22;2175;51.018;6.994;2023-04-24T11:09:08;10.10;99.90
4324;DHT22;2175;51.018;6.994;2023-04-24T11:11:35;10.00;99.90
4324;DHT22;2175;51.018;6.994;2023-04-24T11:14:02;10.00;99.90
4324;DHT22;2175;51.018;6.994;2023-04-24T11:16:42;9.90;99.90
4324;DHT22;2175;51.018;6.994;2023-04-24T11:21:59;9.90;99.90
4324;DHT22;2175;51.018;6.994;2023-04-24T11:24:48;9.80;99.90
4324;DHT22;2175;51.018;6.994;2023-04-24T11:27:17;9.90;99.90
4324;DHT22;2175;51.018;6.994;2023-04-24T11:29:51;10.10;99.90
4324;DHT22;2175;51.018;6.994;2023-04-24T11:32:30;10.50;99.90
4324;DHT22;2175;51.018;6.994;2023-04-24T11:35:14;10.70;99.90
4324;DHT22;2175;51.018;6.994;2023-04-24T11:37:42;11.00;99.90
4324;DHT22;2175;51.018;6.994;2023-04-24T11:40:12;11.30;99.90
4324;DHT22;2175;51.018;6.994;2023-04-24T11:42:48;11.50;99.90
4324;DHT22;2175;51.018;6.994;2023-04-24T11:45:21;11.60;99.90
4324;DHT22;2175;51.018;6.994;2023-04-24T11:47:47;11.70;99.90
4324;DHT22;2175;51.018;6.994;2023-04-24T11:50:15;11.80;99.90
4324;DHT22;2175;51.018;6.994;2023-04-24T11:52:41;11.70;99.90
4324;DHT22;2175;51.018;6.994;2023-04-24T11:55:23;11.60;99.90
4324;DHT22;2175;51.018;6.994;2023-04-24T11:57:56;11.60;99.90
4324;DHT22;2175;51.018;6.994;2023-04-24T12:00:26;11.60;99.90
4324;DHT22;2175;51.018;6.994;2023-04-24T12:02:53;11.60;99.90
4324;DHT22;2175;51.018;6.994;2023-04-24T12:05:28;11.50;99.90
4324;DHT22;2175;51.018;6.994;2023-04-24T12:07:56;11.60;99.90
4324;DHT22;2175;51.018;6.994;2023-04-24T12:10:26;11.60;99.90
4324;DHT22;2175;51.018;6.994;2023-04-24T12:12:52;11.60;99.90
4324;DHT22;2175;51.018;6.994;2023-04-24T12:15:20;11.50;99.90
4324;DHT22;2175;51.018;6.994;2023-04-24T12:17:45;11.30;99.90
4324;DHT22;2175;51.018;6.994;2023-04-24T12:20:12;11.20;99.90
4324;DHT22;2175;51.018;6.994;2023-04-24T12:25:17;11.10;99.90
4324;DHT22;2175;51.018;6.994;2023-04-24T12:27:44;11.10;99.90
4324;DHT22;2175;51.018;6.994;2023-04-24T12:30:13;11.00;99.90
4324;DHT22;2175;51.018;6.994;2023-04-24T12:32:47;10.90;99.90
4324;DHT22;2175;51.018;6.994;2023-04-24T12:35:13;10.70;99.90
4324;DHT22;2175;51.018;6.994;2023-04-24T12:37:42;10.70;99.90
4324;DHT22;2175;51.018;6.994;2023-04-24T12:40:10;10.90;99.90
4324;DHT22;2175;51.018;6.994;2023-04-24T12:42:42;10.90;99.90
4324;DHT22;2175;51.018;6.994;2023-04-24T12:45:08;11.10;99.90
4324;DHT22;2175;51.018;6.994;2023-04-24T12:47:34;11.30;99.90
4324;DHT22;2175;51.018;6.994;2023-04-24T12:50:01;11.50;99.90
4324;DHT22;2175;51.018;6.994;2023-04-24T12:52:29;11.90;99.90
4324;DHT22;2175;51.018;6.994;2023-04-24T12:54:57;11.90;99.90
4324;DHT22;2175;51.018;6.994;2023-04-24T12:57:24;11.90;99.90
4324;DHT22;2175;51.018;6.994;2023-04-24T12:59:50;12.10;99.90
4324;DHT22;2175;51.018;6.994;2023-04-24T13:02:16;12.10;99.90
4324;DHT22;2175;51.018;6.994;2023-04-24T13:04:47;12.10;99.90
4324;DHT22;2175;51.018;6.994;2023-04-24T13:07:13;12.20;99.90
4324;DHT22;2175;51.018;6.994;2023-04-24T13:09:40;12.20;99.90
4324;DHT22;2175;51.018;6.994;2023-04-24T13:12:06;12.20;99.90
4324;DHT22;2175;51.018;6.994;2023-04-24T13:14:32;12.30;99.90
4324;DHT22;2175;51.018;6.994;2023-04-24T13:16:57;12.40;99.90
4324;DHT22;2175;51.018;6.994;2023-04-24T13:19:27;12.70;99.90
4324;DHT22;2175;51.018;6.994;2023-04-24T13:21:55;12.90;99.90
4324;DHT22;2175;51.018;6.994;2023-04-24T13:24:22;13.00;99.90
4324;DHT22;2175;51.018;6.994;2023-04-24T13:26:50;12.70;99.90
4324;DHT22;2175;51.018;6.994;2023-04-24T13:29:16;12.70;99.90
4324;DHT22;2175;51.018;6.994;2023-04-24T13:31:42;12.70;99.90
4324;DHT22;2175;51.018;6.994;2023-04-24T13:34:07;12.70;99.90
4324;DHT22;2175;51.018;6.994;2023-04-24T13:36:33;12.70;99.90
4324;DHT22;2175;51.018;6.994;2023-04-24T13:38:58;12.90;99.90
4324;DHT22;2175;51.018;6.994;2023-04-24T13:41:24;13.20;99.90
4324;DHT22;2175;51.018;6.994;2023-04-24T13:43:50;13.10;99.90
4324;DHT22;2175;51.018;6.994;2023-04-24T13:46:16;12.90;99.90
4324;DHT22;2175;51.018;6.994;2023-04-24T13:48:41;12.90;99.90
4324;DHT22;2175;51.018;6.994;2023-04-24T13:51:07;12.90;99.90
4324;DHT22;2175;51.018;6.994;2023-04-24T13:53:32;12.80;99.90
4324;DHT22;2175;51.018;6.994;2023-04-24T13:56:01;12.60;99.90
4324;DHT22;2175;51.018;6.994;2023-04-24T13:58:27;12.50;99.90
4324;DHT22;2175;51.018;6.994;2023-04-24T14:00:53;12.40;99.90
4324;DHT22;2175;51.018;6.994;2023-04-24T14:03:18;12.10;99.90
4324;DHT22;2175;51.018;6.994;2023-04-24T14:05:44;11.90;99.90
4324;DHT22;2175;51.018;6.994;2023-04-24T14:08:09;11.90;99.90
4324;DHT22;2175;51.018;6.994;2023-04-24T14:10:35;11.90;99.90
4324;DHT22;2175;51.018;6.994;2023-04-24T14:13:01;12.00;99.90
4324;DHT22;2175;51.018;6.994;2023-04-24T14:15:26;12.20;99.90
4324;DHT22;2175;51.018;6.994;2023-04-24T14:17:53;12.60;99.90
4324;DHT22;2175;51.018;6.994;2023-04-24T14:20:18;12.70;99.90
4324;DHT22;2175;51.018;6.994;2023-04-24T14:22:44;12.90;99.90
4324;DHT22;2175;51.018;6.994;2023-04-24T14:25:10;13.20;99.90
4324;DHT22;2175;51.018;6.994;2023-04-24T14:27:35;13.20;99.90
4324;DHT22;2175;51.018;6.994;2023-04-24T14:30:01;13.20;99.90
4324;DHT22;2175;51.018;6.994;2023-04-24T14:32:27;13.00;99.90
4324;DHT22;2175;51.018;6.994;2023-04-24T14:34:53;12.70;99.90
4324;DHT22;2175;51.018;6.994;2023-04-24T14:37:19;12.90;99.90
4324;DHT22;2175;51.018;6.994;2023-04-24T14:39:45;13.00;99.90
4324;DHT22;2175;51.018;6.994;2023-04-24T14:42:10;12.90;99.90
4324;DHT22;2175;51.018;6.994;2023-04-24T14:44:36;12.90;99.90
4324;DHT22;2175;51.018;6.994;2023-04-24T14:47:02;13.10;99.90
4324;DHT22;2175;51.018;6.994;2023-04-24T14:49:27;13.10;99.90
4324;DHT22;2175;51.018;6.994;2023-04-24T14:51:53;13.00;99.90
4324;DHT22;2175;51.018;6.994;2023-04-24T14:54:18;13.10;99.90
4324;DHT22;2175;51.018;6.994;2023-04-24T14:56:45;13.20;99.90
4324;DHT22;2175;51.018;6.994;2023-04-24T14:59:10;13.10;99.90
4324;DHT22;2175;51.018;6.994;2023-04-24T15:01:36;13.20;99.90
4324;DHT22;2175;51.018;6.994;2023-04-24T15:04:02;13.40;99.90
4324;DHT22;2175;51.018;6.994;2023-04-24T15:06:29;13.40;99.90
4324;DHT22;2175;51.018;6.994;2023-04-24T15:08:56;13.30;99.90
4324;DHT22;2175;51.018;6.994;2023-04-24T15:11:22;13.10;99.90
4324;DHT22;2175;51.018;6.994;2023-04-24T15:13:47;13.00;99.90
4324;DHT22;2175;51.018;6.994;2023-04-24T15:16:13;13.30;99.90
4324;DHT22;2175;51.018;6.994;2023-04-24T15:18:39;13.60;99.90
4324;DHT22;2175;51.018;6.994;2023-04-24T15:21:04;13.70;99.90
4324;DHT22;2175;51.018;6.994;2023-04-24T15:23:30;13.60;99.90
4324;DHT22;2175;51.018;6.994;2023-04-24T15:25:56;13.50;99.90
4324;DHT22;2175;51.018;6.994;2023-04-24T15:28:23;13.30;99.90
4324;DHT22;2175;51.018;6.994;2023-04-24T15:30:49;13.30;99.90
4324;DHT22;2175;51.018;6.994;2023-04-24T15:33:15;13.20;99.90
4324;DHT22;2175;51.018;6.994;2023-04-24T15:35:41;13.10;99.90
4324;DHT22;2175;51.018;6.994;2023-04-24T15:38:06;13.10;99.90
4324;DHT22;2175;51.018;6.994;2023-04-24T15:40:32;13.20;99.90
4324;DHT22;2175;51.018;6.994;2023-04-24T15:42:57;13.30;99.90
4324;DHT22;2175;51.018;6.994;2023-04-24T15:45:23;13.30;99.90
4324;DHT22;2175;51.018;6.994;2023-04-24T15:47:50;13.30;99.90
4324;DHT22;2175;51.018;6.994;2023-04-24T15:50:16;13.30;99.90
4324;DHT22;2175;51.018;6.994;2023-04-24T15:52:43;13.20;99.90
4324;DHT22;2175;51.018;6.994;2023-04-24T15:55:09;13.10;99.90
4324;DHT22;2175;51.018;6.994;2023-04-24T15:57:35;12.90;99.90
4324;DHT22;2175;51.018;6.994;2023-04-24T16:00:01;12.90;99.90
4324;DHT22;2175;51.018;6.994;2023-04-24T16:02:27;12.80;99.90
4324;DHT22;2175;51.018;6.994;2023-04-24T16:04:52;12.70;99.90
4324;DHT22;2175;51.018;6.994;2023-04-24T16:07:18;12.70;99.90
4324;DHT22;2175;51.018;6.994;2023-04-24T16:09:44;12.50;99.90
4324;DHT22;2175;51.018;6.994;2023-04-24T16:12:10;12.50;99.90
4324;DHT22;2175;51.018;6.994;2023-04-24T16:14:39;12.50;99.90
4324;DHT22;2175;51.018;6.994;2023-04-24T16:17:04;12.60;99.90
4324;DHT22;2175;51.018;6.994;2023-04-24T16:19:31;12.70;99.90
4324;DHT22;2175;51.018;6.994;2023-04-24T16:21:58;12.60;99.90
4324;DHT22;2175;51.018;6.994;2023-04-24T16:24:24;12.60;99.90